createdAt,value
2023-02-28T00:00:43.689Z,61.13
2023-02-28T00:01:43.689Z,60.60
2023-02-28T00:02:43.774Z,60.75
2023-02-28T00:03:43.721Z,59.92
2023-02-28T00:04:43.675Z,63.44
2023-02-28T00:05:43.661Z,61.60
2023-02-28T00:06:43.667Z,60.74
2023-02-28T00:07:43.674Z,60.82
2023-02-28T00:08:43.670Z,61.23
2023-02-28T00:09:43.636Z,61.06
2023-02-28T00:10:43.649Z,60.77
2023-02-28T00:11:43.633Z,60.51
2023-02-28T00:12:43.622Z,62.35
2023-02-28T00:13:43.612Z,60.48
2023-02-28T00:14:43.622Z,60.99
2023-02-28T00:15:43.630Z,61.92
2023-02-28T00:16:43.643Z,62.00
2023-02-28T00:17:43.604Z,61.21
2023-02-28T00:18:43.590Z,61.91
2023-02-28T00:19:43.581Z,60.85
2023-02-28T00:20:43.618Z,61.03
2023-02-28T00:21:43.611Z,65.19
2023-02-28T00:22:43.571Z,63.51
2023-02-28T00:23:43.575Z,62.79
2023-02-28T00:24:43.553Z,64.95
2023-02-28T00:25:43.557Z,59.04
2023-02-28T00:26:43.556Z,59.06
2023-02-28T00:27:43.574Z,61.78
2023-02-28T00:28:43.555Z,62.52
2023-02-28T00:29:43.564Z,62.91
2023-02-28T00:30:43.558Z,61.64
2023-02-28T00:31:43.521Z,62.49
2023-02-28T00:32:43.512Z,61.60
2023-02-28T00:33:43.518Z,60.45
2023-02-28T00:34:43.505Z,59.60
2023-02-28T00:35:43.541Z,61.05
2023-02-28T00:36:43.497Z,61.77
2023-02-28T00:37:43.543Z,62.64
2023-02-28T00:38:43.497Z,64.91
2023-02-28T00:39:43.466Z,61.08
2023-02-28T00:40:43.482Z,61.61
2023-02-28T00:41:43.505Z,63.83
2023-02-28T00:42:43.451Z,63.24
2023-02-28T00:43:43.456Z,62.65
2023-02-28T00:44:43.477Z,61.00
2023-02-28T00:45:43.447Z,58.81
2023-02-28T00:46:43.438Z,62.90
2023-02-28T00:47:43.436Z,60.04
2023-02-28T00:48:43.450Z,56.92
2023-02-28T00:49:43.421Z,61.41
2023-02-28T00:50:43.428Z,59.98
2023-02-28T00:51:43.422Z,59.86
2023-02-28T00:52:43.412Z,60.74
2023-02-28T00:53:43.394Z,61.09
2023-02-28T00:54:43.399Z,62.09
2023-02-28T00:55:43.406Z,62.68
2023-02-28T00:56:43.393Z,59.15
2023-02-28T00:57:43.393Z,60.08
2023-02-28T00:58:43.394Z,59.56
2023-02-28T00:59:43.366Z,61.12
2023-02-28T01:00:43.350Z,60.38
2023-02-28T01:01:43.439Z,58.48
2023-02-28T01:02:43.356Z,59.98
2023-02-28T01:03:43.346Z,60.94
2023-02-28T01:04:43.366Z,62.63
2023-02-28T01:05:43.340Z,61.13
2023-02-28T01:06:43.339Z,59.74
2023-02-28T01:07:43.350Z,59.16
2023-02-28T01:08:43.332Z,59.69
2023-02-28T01:09:43.321Z,59.65
2023-02-28T01:10:43.300Z,62.09
2023-02-28T01:11:43.297Z,62.68
2023-02-28T01:12:43.295Z,62.17
2023-02-28T01:13:43.309Z,63.37
2023-02-28T01:14:43.268Z,59.90
2023-02-28T01:15:43.281Z,58.66
2023-02-28T01:16:43.256Z,62.56
2023-02-28T01:17:43.241Z,63.89
2023-02-28T01:18:43.245Z,62.40
2023-02-28T01:19:43.257Z,62.71
2023-02-28T01:20:43.241Z,61.54
2023-02-28T01:21:43.230Z,62.90
2023-02-28T01:22:43.234Z,60.33
2023-02-28T01:23:43.215Z,58.66
2023-02-28T01:24:43.214Z,61.22
2023-02-28T01:25:43.276Z,62.12
2023-02-28T01:26:43.206Z,60.86
2023-02-28T01:27:43.205Z,59.77
2023-02-28T01:28:43.179Z,60.19
2023-02-28T01:29:43.223Z,61.49
2023-02-28T01:30:43.268Z,62.77
2023-02-28T01:31:43.160Z,61.79
2023-02-28T01:32:43.157Z,63.81
2023-02-28T01:33:43.187Z,64.24
2023-02-28T01:34:43.148Z,61.74
2023-02-28T01:35:43.165Z,62.53
2023-02-28T01:36:43.158Z,61.76
2023-02-28T01:37:43.131Z,58.28
2023-02-28T01:38:43.127Z,61.33
2023-02-28T01:39:43.133Z,59.05
2023-02-28T01:40:43.109Z,61.33
2023-02-28T01:41:43.095Z,59.01
2023-02-28T01:42:43.105Z,60.59
2023-02-28T01:43:43.089Z,59.36
2023-02-28T01:44:43.090Z,61.22
2023-02-28T01:45:43.093Z,60.91
2023-02-28T01:46:43.116Z,62.68
2023-02-28T01:47:43.093Z,60.32
2023-02-28T01:48:43.058Z,60.78
2023-02-28T01:49:43.081Z,60.29
2023-02-28T01:50:43.053Z,61.57
2023-02-28T01:51:43.059Z,62.25
2023-02-28T01:52:43.026Z,59.55
2023-02-28T01:53:43.034Z,60.52
2023-02-28T01:54:43.066Z,59.58
2023-02-28T01:55:43.051Z,61.72
2023-02-28T01:56:43.002Z,55.35
2023-02-28T01:57:43.027Z,60.31
2023-02-28T01:58:43.019Z,60.04
2023-02-28T01:59:43.010Z,58.27
2023-02-28T02:00:42.997Z,56.45
2023-02-28T02:01:43.019Z,58.86
2023-02-28T02:02:43.051Z,62.26
2023-02-28T02:03:42.973Z,63.06
2023-02-28T02:04:42.981Z,59.49
2023-02-28T02:05:42.951Z,62.27
2023-02-28T02:06:42.962Z,65.09
2023-02-28T02:07:42.940Z,61.87
2023-02-28T02:08:42.931Z,61.50
2023-02-28T02:09:42.956Z,63.41
2023-02-28T02:10:42.947Z,62.86
2023-02-28T02:11:42.912Z,62.95
2023-02-28T02:12:42.910Z,62.87
2023-02-28T02:13:42.916Z,61.58
2023-02-28T02:14:42.904Z,62.58
2023-02-28T02:15:42.920Z,60.57
2023-02-28T02:16:42.921Z,59.19
2023-02-28T02:17:42.884Z,63.52
2023-02-28T02:18:42.877Z,65.40
2023-02-28T02:19:42.870Z,63.03
2023-02-28T02:20:42.929Z,62.98
2023-02-28T02:21:42.845Z,62.99
2023-02-28T02:22:42.877Z,62.50
2023-02-28T02:23:42.838Z,60.07
2023-02-28T02:24:42.853Z,61.16
2023-02-28T02:25:42.836Z,62.95
2023-02-28T02:26:42.817Z,62.34
2023-02-28T02:27:42.848Z,63.49
2023-02-28T02:28:42.809Z,59.90
2023-02-28T02:29:42.798Z,60.33
2023-02-28T02:30:42.798Z,60.13
2023-02-28T02:31:42.883Z,61.18
2023-02-28T02:32:42.790Z,62.38
2023-02-28T02:33:42.789Z,64.54
2023-02-28T02:34:42.765Z,62.87
2023-02-28T02:35:42.797Z,58.38
2023-02-28T02:36:42.795Z,59.04
2023-02-28T02:37:42.760Z,63.28
2023-02-28T02:38:42.768Z,62.01
2023-02-28T02:39:42.734Z,59.96
2023-02-28T02:40:42.735Z,60.76
2023-02-28T02:41:42.722Z,63.23
2023-02-28T02:42:42.724Z,59.54
2023-02-28T02:43:42.760Z,63.42
2023-02-28T02:44:42.725Z,60.53
2023-02-28T02:45:42.729Z,59.25
2023-02-28T02:46:42.722Z,64.43
2023-02-28T02:47:42.684Z,61.66
2023-02-28T02:48:42.696Z,63.68
2023-02-28T02:49:42.694Z,62.81
2023-02-28T02:50:42.679Z,64.07
2023-02-28T02:51:42.670Z,60.57
2023-02-28T02:52:42.717Z,64.52
2023-02-28T02:53:42.677Z,62.79
2023-02-28T02:54:42.649Z,61.07
2023-02-28T02:55:42.646Z,61.95
2023-02-28T02:56:42.653Z,60.01
2023-02-28T02:57:42.645Z,58.63
2023-02-28T02:58:42.644Z,63.76
2023-02-28T02:59:42.638Z,61.87
2023-02-28T03:00:42.649Z,64.16
2023-02-28T03:01:42.614Z,63.42
2023-02-28T03:02:42.623Z,61.01
2023-02-28T03:03:42.658Z,60.48
2023-02-28T03:04:42.596Z,63.43
2023-02-28T03:05:42.596Z,60.62
2023-02-28T03:06:42.575Z,61.08
2023-02-28T03:07:42.576Z,64.30
2023-02-28T03:08:42.563Z,64.51
2023-02-28T03:09:42.575Z,62.52
2023-02-28T03:10:42.561Z,64.07
2023-02-28T03:11:42.540Z,62.85
2023-02-28T03:12:42.571Z,60.53
2023-02-28T03:13:42.548Z,59.73
2023-02-28T03:14:42.529Z,64.24
2023-02-28T03:15:42.517Z,62.75
2023-02-28T03:16:42.544Z,63.49
2023-02-28T03:17:42.503Z,64.52
2023-02-28T03:18:42.502Z,65.60
2023-02-28T03:19:42.495Z,60.63
2023-02-28T03:20:42.485Z,62.45
2023-02-28T03:21:42.474Z,62.58
2023-02-28T03:22:42.492Z,63.84
2023-02-28T03:23:42.468Z,62.35
2023-02-28T03:24:42.472Z,61.72
2023-02-28T03:25:42.457Z,63.55
2023-02-28T03:26:42.458Z,60.27
2023-02-28T03:27:42.458Z,61.64
2023-02-28T03:28:42.434Z,60.54
2023-02-28T03:29:42.428Z,63.31
2023-02-28T03:30:42.427Z,62.29
2023-02-28T03:31:42.489Z,62.58
2023-02-28T03:32:42.412Z,65.38
2023-02-28T03:33:42.427Z,61.20
2023-02-28T03:34:42.396Z,65.22
2023-02-28T03:35:42.452Z,66.19
2023-02-28T03:36:42.393Z,65.26
2023-02-28T03:37:42.379Z,64.72
2023-02-28T03:38:42.380Z,63.89
2023-02-28T03:39:42.379Z,64.81
2023-02-28T03:40:42.363Z,65.50
2023-02-28T03:41:42.352Z,66.14
2023-02-28T03:42:42.362Z,64.86
2023-02-28T03:43:42.343Z,62.50
2023-02-28T03:44:42.361Z,66.07
2023-02-28T03:45:42.379Z,65.20
2023-02-28T03:46:42.323Z,63.65
2023-02-28T03:47:42.315Z,65.42
2023-02-28T03:48:42.315Z,66.55
2023-02-28T03:49:42.298Z,61.39
2023-02-28T03:50:42.364Z,66.51
2023-02-28T03:51:42.293Z,64.31
2023-02-28T03:52:42.310Z,63.69
2023-02-28T03:53:42.280Z,66.77
2023-02-28T03:54:42.278Z,64.79
2023-02-28T03:55:42.275Z,65.73
2023-02-28T03:56:42.281Z,64.61
2023-02-28T03:57:42.239Z,63.40
2023-02-28T03:58:42.253Z,65.41
2023-02-28T03:59:42.245Z,62.78
2023-02-28T04:00:42.241Z,66.02
2023-02-28T04:01:42.405Z,62.27
2023-02-28T04:02:42.249Z,63.19
2023-02-28T04:03:42.252Z,62.59
2023-02-28T04:04:42.259Z,61.48
2023-02-28T04:05:42.201Z,64.59
2023-02-28T04:06:42.198Z,66.10
2023-02-28T04:07:42.224Z,63.24
2023-02-28T04:08:42.210Z,66.58
2023-02-28T04:09:42.185Z,65.53
2023-02-28T04:10:42.181Z,64.11
2023-02-28T04:11:42.162Z,66.42
2023-02-28T04:12:42.157Z,65.46
2023-02-28T04:13:42.154Z,65.21
2023-02-28T04:14:42.160Z,63.99
2023-02-28T04:15:42.152Z,61.30
2023-02-28T04:16:42.290Z,59.32
2023-02-28T04:17:42.111Z,64.01
2023-02-28T04:18:42.167Z,63.30
2023-02-28T04:19:42.108Z,61.99
2023-02-28T04:20:42.121Z,63.04
2023-02-28T04:21:42.097Z,63.74
2023-02-28T04:22:42.085Z,61.66
2023-02-28T04:23:42.082Z,61.77
2023-02-28T04:24:42.086Z,64.75
2023-02-28T04:25:42.062Z,66.15
2023-02-28T04:26:42.101Z,67.05
2023-02-28T04:27:42.073Z,65.23
2023-02-28T04:28:42.057Z,66.23
2023-02-28T04:29:42.050Z,65.42
2023-02-28T04:30:42.057Z,64.82
2023-02-28T04:31:42.084Z,64.67
2023-02-28T04:32:42.121Z,65.21
2023-02-28T04:33:42.032Z,67.26
2023-02-28T04:34:42.018Z,66.45
2023-02-28T04:35:42.044Z,64.50
2023-02-28T04:36:42.028Z,63.69
2023-02-28T04:37:42.032Z,66.39
2023-02-28T04:38:42.000Z,65.09
2023-02-28T04:39:41.976Z,65.30
2023-02-28T04:40:41.984Z,66.34
2023-02-28T04:41:41.966Z,65.28
2023-02-28T04:42:42.001Z,65.66
2023-02-28T04:43:41.958Z,66.83
2023-02-28T04:44:41.951Z,64.47
2023-02-28T04:45:41.979Z,65.91
2023-02-28T04:46:41.966Z,65.40
2023-02-28T04:47:41.932Z,66.48
2023-02-28T04:48:41.926Z,65.90
2023-02-28T04:49:41.931Z,63.34
2023-02-28T04:50:41.914Z,65.98
2023-02-28T04:51:41.923Z,63.42
2023-02-28T04:52:41.892Z,65.47
2023-02-28T04:53:41.906Z,65.44
2023-02-28T04:54:41.885Z,65.50
2023-02-28T04:55:41.872Z,66.59
2023-02-28T04:56:41.869Z,65.73
2023-02-28T04:57:41.882Z,63.44
2023-02-28T04:58:41.887Z,67.09
2023-02-28T04:59:41.878Z,65.62
2023-02-28T05:00:41.848Z,66.87
2023-02-28T05:01:41.833Z,65.80
2023-02-28T05:02:41.845Z,66.53
2023-02-28T05:03:41.828Z,66.16
2023-02-28T05:04:41.835Z,67.05
2023-02-28T05:05:41.835Z,64.89
2023-02-28T05:06:41.806Z,68.51
2023-02-28T05:07:41.809Z,67.53
2023-02-28T05:08:41.808Z,66.62
2023-02-28T05:09:41.804Z,65.80
2023-02-28T05:10:41.798Z,67.54
2023-02-28T05:11:41.781Z,67.09
2023-02-28T05:12:41.763Z,65.57
2023-02-28T05:13:41.753Z,66.45
2023-02-28T05:14:41.752Z,64.37
2023-02-28T05:15:41.739Z,67.35
2023-02-28T05:16:41.761Z,65.98
2023-02-28T05:17:41.762Z,67.00
2023-02-28T05:18:41.791Z,68.11
2023-02-28T05:19:41.717Z,64.82
2023-02-28T05:20:41.714Z,67.36
2023-02-28T05:21:41.739Z,64.77
2023-02-28T05:22:41.707Z,67.08
2023-02-28T05:23:41.704Z,68.03
2023-02-28T05:24:41.712Z,65.45
2023-02-28T05:25:41.675Z,64.77
2023-02-28T05:26:41.734Z,66.01
2023-02-28T05:27:41.674Z,67.32
2023-02-28T05:28:41.673Z,65.31
2023-02-28T05:29:41.648Z,66.43
2023-02-28T05:30:41.646Z,65.60
2023-02-28T05:31:41.677Z,66.85
2023-02-28T05:32:41.663Z,65.62
2023-02-28T05:33:41.642Z,67.62
2023-02-28T05:34:41.620Z,66.00
2023-02-28T05:35:41.649Z,65.33
2023-02-28T05:36:41.610Z,64.02
2023-02-28T05:37:41.629Z,65.10
2023-02-28T05:38:41.608Z,65.35
2023-02-28T05:39:41.642Z,66.10
2023-02-28T05:40:41.614Z,68.04
2023-02-28T05:41:41.578Z,65.78
2023-02-28T05:42:41.586Z,67.39
2023-02-28T05:43:41.562Z,67.12
2023-02-28T05:44:41.571Z,67.35
2023-02-28T05:45:41.605Z,65.38
2023-02-28T05:46:41.550Z,68.38
2023-02-28T05:47:41.556Z,64.43
2023-02-28T05:48:41.578Z,66.03
2023-02-28T05:49:41.562Z,64.67
2023-02-28T05:50:41.529Z,67.29
2023-02-28T05:51:41.530Z,64.94
2023-02-28T05:52:41.523Z,68.18
2023-02-28T05:53:41.515Z,66.75
2023-02-28T05:54:41.526Z,66.89
2023-02-28T05:55:41.488Z,63.79
2023-02-28T05:56:41.492Z,65.80
2023-02-28T05:57:41.498Z,66.46
2023-02-28T05:58:41.507Z,66.15
2023-02-28T05:59:41.493Z,65.67
2023-02-28T06:00:42.406Z,63.68
2023-02-28T06:01:41.459Z,65.40
2023-02-28T06:02:41.453Z,68.40
2023-02-28T06:03:41.470Z,66.33
2023-02-28T06:04:41.447Z,64.44
2023-02-28T06:05:41.453Z,66.04
2023-02-28T06:06:41.427Z,64.88
2023-02-28T06:07:41.419Z,64.69
2023-02-28T06:08:41.431Z,66.61
2023-02-28T06:09:41.439Z,66.45
2023-02-28T06:10:41.405Z,66.41
2023-02-28T06:11:41.402Z,67.56
2023-02-28T06:12:41.401Z,67.84
2023-02-28T06:13:41.394Z,65.05
2023-02-28T06:14:41.405Z,67.09
2023-02-28T06:15:41.395Z,64.33
2023-02-28T06:16:41.422Z,64.62
2023-02-28T06:17:41.359Z,67.15
2023-02-28T06:18:41.365Z,66.60
2023-02-28T06:19:41.348Z,67.76
2023-02-28T06:20:41.358Z,68.66
2023-02-28T06:21:41.353Z,66.62
2023-02-28T06:22:41.336Z,67.97
2023-02-28T06:23:41.323Z,65.25
2023-02-28T06:24:41.315Z,66.81
2023-02-28T06:25:41.324Z,67.65
2023-02-28T06:26:41.307Z,67.09
2023-02-28T06:27:41.305Z,67.83
2023-02-28T06:28:41.306Z,67.24
2023-02-28T06:29:41.445Z,67.26
2023-02-28T06:30:41.274Z,68.77
2023-02-28T06:31:41.339Z,65.94
2023-02-28T06:32:41.271Z,67.93
2023-02-28T06:33:41.266Z,67.59
2023-02-28T06:34:41.254Z,66.72
2023-02-28T06:35:41.302Z,65.67
2023-02-28T06:36:41.249Z,65.76
2023-02-28T06:37:41.937Z,68.37
2023-02-28T06:38:41.233Z,68.40
2023-02-28T06:39:41.221Z,68.01
2023-02-28T06:40:41.216Z,67.49
2023-02-28T06:41:53.978Z,67.20
2023-02-28T06:42:42.232Z,67.32
2023-02-28T06:43:41.189Z,68.82
2023-02-28T06:44:41.188Z,67.89
2023-02-28T06:45:41.188Z,66.00
2023-02-28T06:46:41.175Z,66.35
2023-02-28T06:47:41.195Z,66.24
2023-02-28T06:48:41.198Z,65.00
2023-02-28T06:49:41.185Z,67.34
2023-02-28T06:50:41.162Z,67.95
2023-02-28T06:51:41.152Z,67.52
2023-02-28T06:52:41.140Z,67.52
2023-02-28T06:53:41.141Z,68.67
2023-02-28T06:54:41.135Z,66.44
2023-02-28T06:55:41.137Z,65.70
2023-02-28T06:56:41.129Z,65.30
2023-02-28T06:57:41.121Z,67.76
2023-02-28T06:58:41.106Z,68.39
2023-02-28T06:59:41.091Z,66.36
2023-02-28T07:00:41.108Z,63.41
2023-02-28T07:01:41.151Z,64.80
2023-02-28T07:02:41.095Z,64.91
2023-02-28T07:03:41.102Z,64.75
2023-02-28T07:04:41.081Z,66.08
2023-02-28T07:05:41.061Z,66.84
2023-02-28T07:06:41.061Z,66.43
2023-02-28T07:07:41.044Z,65.88
2023-02-28T07:08:41.052Z,64.64
2023-02-28T07:09:41.048Z,63.72
2023-02-28T07:10:41.040Z,64.85
2023-02-28T07:11:41.022Z,65.85
2023-02-28T07:12:41.023Z,62.27
2023-02-28T07:13:41.000Z,62.64
2023-02-28T07:14:41.049Z,62.85
2023-02-28T07:15:43.942Z,65.41
2023-02-28T07:16:40.989Z,64.29
2023-02-28T07:17:40.985Z,64.43
2023-02-28T07:18:40.977Z,64.01
2023-02-28T07:19:40.970Z,61.59
2023-02-28T07:20:40.985Z,64.58
2023-02-28T07:21:40.960Z,64.77
2023-02-28T07:22:40.953Z,63.58
2023-02-28T07:23:40.942Z,61.91
2023-02-28T07:24:40.946Z,62.84
2023-02-28T07:25:40.945Z,61.47
2023-02-28T07:26:40.962Z,64.06
2023-02-28T07:27:42.263Z,63.63
2023-02-28T07:28:40.952Z,63.58
2023-02-28T07:29:40.913Z,63.64
2023-02-28T07:30:40.901Z,62.87
2023-02-28T07:31:40.922Z,63.43
2023-02-28T07:32:41.674Z,63.60
2023-02-28T07:33:40.944Z,64.32
2023-02-28T07:34:40.903Z,64.19
2023-02-28T07:35:40.906Z,62.19
2023-02-28T07:36:40.879Z,60.28
2023-02-28T07:37:40.865Z,62.36
2023-02-28T07:38:40.871Z,61.68
2023-02-28T07:39:40.887Z,64.35
2023-02-28T07:40:40.862Z,63.44
2023-02-28T07:41:40.844Z,61.33
2023-02-28T07:42:40.878Z,62.73
2023-02-28T07:43:40.835Z,63.68
2023-02-28T07:44:40.832Z,61.26
2023-02-28T07:45:40.867Z,62.45
2023-02-28T07:46:40.908Z,62.45
2023-02-28T07:47:40.813Z,62.71
2023-02-28T07:48:40.806Z,63.33
2023-02-28T07:49:40.808Z,61.37
2023-02-28T07:50:40.809Z,62.94
2023-02-28T07:51:40.813Z,63.50
2023-02-28T07:52:40.774Z,63.65
2023-02-28T07:53:40.780Z,62.57
2023-02-28T07:54:40.791Z,62.65
2023-02-28T07:55:40.776Z,62.33
2023-02-28T07:56:40.774Z,62.51
2023-02-28T07:57:40.755Z,62.31
2023-02-28T07:58:40.780Z,63.35
2023-02-28T07:59:40.747Z,61.38
2023-02-28T08:00:40.818Z,62.74
2023-02-28T08:01:40.741Z,61.27
2023-02-28T08:02:40.744Z,63.11
2023-02-28T08:03:40.732Z,60.45
2023-02-28T08:04:40.739Z,63.05
2023-02-28T08:05:40.708Z,60.65
2023-02-28T08:06:40.692Z,62.24
2023-02-28T08:07:40.704Z,62.72
2023-02-28T08:08:40.716Z,59.22
2023-02-28T08:09:40.667Z,61.65
2023-02-28T08:10:40.667Z,63.26
2023-02-28T08:11:40.657Z,60.43
2023-02-28T08:12:40.649Z,60.90
2023-02-28T08:13:40.661Z,61.22
2023-02-28T08:14:40.690Z,60.43
2023-02-28T08:15:40.635Z,62.22
2023-02-28T08:16:40.696Z,60.91
2023-02-28T08:17:40.623Z,60.63
2023-02-28T08:18:40.635Z,61.30
2023-02-28T08:19:40.624Z,63.40
2023-02-28T08:20:40.612Z,61.03
2023-02-28T08:21:40.606Z,61.00
2023-02-28T08:22:40.599Z,63.46
2023-02-28T08:23:40.607Z,61.85
2023-02-28T08:24:40.581Z,61.39
2023-02-28T08:25:40.575Z,61.78
2023-02-28T08:26:40.574Z,62.50
2023-02-28T08:27:40.547Z,62.54
2023-02-28T08:28:40.555Z,62.98
2023-02-28T08:29:40.535Z,60.27
2023-02-28T08:30:40.532Z,63.01
2023-02-28T08:31:40.582Z,62.34
2023-02-28T08:32:40.627Z,61.11
2023-02-28T08:33:40.525Z,61.15
2023-02-28T08:34:40.510Z,62.17
2023-02-28T08:35:40.560Z,64.61
2023-02-28T08:36:40.552Z,63.08
2023-02-28T08:37:40.494Z,61.56
2023-02-28T08:38:40.521Z,63.83
2023-02-28T08:39:40.474Z,63.30
2023-02-28T08:40:40.472Z,60.18
2023-02-28T08:41:40.460Z,62.37
2023-02-28T08:42:40.464Z,61.03
2023-02-28T08:43:40.503Z,60.91
2023-02-28T08:44:40.438Z,64.06
2023-02-28T08:45:40.444Z,63.20
2023-02-28T08:46:40.436Z,62.69
2023-02-28T08:47:40.451Z,64.01
2023-02-28T08:48:40.426Z,64.58
2023-02-28T08:49:40.424Z,63.46
2023-02-28T08:50:40.431Z,62.26
2023-02-28T08:51:40.396Z,64.14
2023-02-28T08:52:40.474Z,62.92
2023-02-28T08:53:40.394Z,61.77
2023-02-28T08:54:40.382Z,62.26
2023-02-28T08:55:40.370Z,62.51
2023-02-28T08:56:40.379Z,63.13
2023-02-28T08:57:40.353Z,62.41
2023-02-28T08:58:40.368Z,62.81
2023-02-28T08:59:40.345Z,63.54
2023-02-28T09:00:40.757Z,61.76
2023-02-28T09:01:40.357Z,62.45
2023-02-28T09:02:40.330Z,63.39
2023-02-28T09:03:40.393Z,59.93
2023-02-28T09:04:40.317Z,60.21
2023-02-28T09:05:40.368Z,61.65
2023-02-28T09:06:40.311Z,60.19
2023-02-28T09:07:40.290Z,62.48
2023-02-28T09:08:40.297Z,61.70
2023-02-28T09:09:40.278Z,61.91
2023-02-28T09:10:40.278Z,60.23
2023-02-28T09:11:40.333Z,62.57
2023-02-28T09:12:40.269Z,63.33
2023-02-28T09:13:40.251Z,61.54
2023-02-28T09:14:40.253Z,58.88
2023-02-28T09:15:40.262Z,56.20
2023-02-28T09:16:40.274Z,60.32
2023-02-28T09:17:40.249Z,64.54
2023-02-28T09:18:40.255Z,61.74
2023-02-28T09:19:40.230Z,57.85
2023-02-28T09:20:40.208Z,58.02
2023-02-28T09:21:40.243Z,59.13
2023-02-28T09:22:40.223Z,60.71
2023-02-28T09:23:40.196Z,59.49
2023-02-28T09:25:40.193Z,63.18
2023-02-28T09:26:47.218Z,65.00
2023-02-28T09:27:42.356Z,64.65
2023-02-28T09:28:40.202Z,61.89
2023-02-28T09:29:40.188Z,63.66
2023-02-28T09:30:40.176Z,64.49
2023-02-28T09:31:40.162Z,65.67
2023-02-28T09:32:40.146Z,69.42
2023-02-28T09:33:40.156Z,67.49
2023-02-28T09:34:40.220Z,65.24
2023-02-28T09:35:40.165Z,64.08
2023-02-28T09:36:44.701Z,65.77
2023-02-28T09:37:41.119Z,63.28
2023-02-28T09:38:40.111Z,61.43
2023-02-28T09:39:40.158Z,59.52
2023-02-28T09:40:40.116Z,60.06
2023-02-28T09:41:40.097Z,62.06
2023-02-28T09:42:40.115Z,62.74
2023-02-28T09:43:40.118Z,61.57
2023-02-28T09:44:40.121Z,61.53
2023-02-28T09:45:40.083Z,61.18
2023-02-28T09:46:40.230Z,62.05
2023-02-28T09:47:40.069Z,62.67
2023-02-28T09:48:41.190Z,64.89
2023-02-28T09:49:40.090Z,63.22
2023-02-28T09:50:40.054Z,65.94
2023-02-28T09:51:40.067Z,66.22
2023-02-28T09:52:40.039Z,65.32
2023-02-28T09:53:40.176Z,64.90
2023-02-28T09:54:40.037Z,62.77
2023-02-28T09:55:46.605Z,64.53
2023-02-28T09:56:41.033Z,61.64
2023-02-28T09:57:40.023Z,62.01
2023-02-28T09:58:40.002Z,63.34
2023-02-28T09:59:40.011Z,62.77
2023-02-28T10:00:40.012Z,63.20
2023-02-28T10:01:40.121Z,63.40
2023-02-28T10:02:39.983Z,63.54
2023-02-28T10:03:39.987Z,64.29
2023-02-28T10:04:40.239Z,66.28
2023-02-28T10:05:39.994Z,63.31
2023-02-28T10:06:39.955Z,65.11
2023-02-28T10:07:39.979Z,65.15
2023-02-28T10:08:39.976Z,63.45
2023-02-28T10:09:39.941Z,63.61
2023-02-28T10:10:39.929Z,66.54
2023-02-28T10:11:39.931Z,65.11
2023-02-28T10:12:39.930Z,65.30
2023-02-28T10:13:39.946Z,62.34
2023-02-28T10:14:39.903Z,63.10
2023-02-28T10:15:39.990Z,65.39
2023-02-28T10:16:39.957Z,65.71
2023-02-28T10:17:49.451Z,65.78
2023-02-28T10:18:40.926Z,64.69
2023-02-28T10:19:39.873Z,65.50
2023-02-28T10:20:39.871Z,65.31
2023-02-28T10:21:39.885Z,66.42
2023-02-28T10:22:39.858Z,64.96
2023-02-28T10:23:39.850Z,62.96
2023-02-28T10:24:39.846Z,65.00
2023-02-28T10:25:39.828Z,63.84
2023-02-28T10:26:39.840Z,64.84
2023-02-28T10:27:39.808Z,66.97
2023-02-28T10:28:39.818Z,67.60
2023-02-28T10:29:39.803Z,66.62
2023-02-28T10:30:39.817Z,66.55
2023-02-28T10:31:39.826Z,64.10
2023-02-28T10:32:39.801Z,62.23
2023-02-28T10:33:39.779Z,63.81
2023-02-28T10:34:39.778Z,64.09
2023-02-28T10:35:39.769Z,63.63
2023-02-28T10:36:39.775Z,63.96
2023-02-28T10:37:39.869Z,61.69
2023-02-28T10:38:39.754Z,63.71
2023-02-28T10:39:39.752Z,63.45
2023-02-28T10:40:39.749Z,63.88
2023-02-28T10:41:39.759Z,65.41
2023-02-28T10:42:39.748Z,64.46
2023-02-28T10:43:39.743Z,62.11
2023-02-28T10:44:39.713Z,64.26
2023-02-28T10:45:39.716Z,63.69
2023-02-28T10:46:39.743Z,63.64
2023-02-28T10:47:39.718Z,63.41
2023-02-28T10:48:39.715Z,63.43
2023-02-28T10:49:39.684Z,62.87
2023-02-28T10:50:39.674Z,64.87
2023-02-28T10:51:39.681Z,61.20
2023-02-28T10:52:39.720Z,60.64
2023-02-28T10:53:57.716Z,65.54
2023-02-28T10:54:40.663Z,65.90
2023-02-28T10:55:39.641Z,63.99
2023-02-28T10:56:39.666Z,65.90
2023-02-28T10:57:39.648Z,65.49
2023-02-28T10:58:39.641Z,65.48
2023-02-28T10:59:39.634Z,64.55
2023-02-28T11:00:39.622Z,62.47
2023-02-28T11:01:39.674Z,64.32
2023-02-28T11:02:39.622Z,65.72
2023-02-28T11:03:39.583Z,64.64
2023-02-28T11:04:39.763Z,66.16
2023-02-28T11:05:39.566Z,64.88
2023-02-28T11:06:39.569Z,66.34
2023-02-28T11:07:50.490Z,64.53
2023-02-28T11:08:40.555Z,63.01
2023-02-28T11:09:39.567Z,64.15
2023-02-28T11:10:39.564Z,63.19
2023-02-28T11:11:39.532Z,64.73
2023-02-28T11:12:47.109Z,63.43
2023-02-28T11:13:40.564Z,65.22
2023-02-28T11:14:39.547Z,64.94
2023-02-28T11:15:39.553Z,64.54
2023-02-28T11:16:39.550Z,64.30
2023-02-28T11:17:39.495Z,64.06
2023-02-28T11:18:39.500Z,63.40
2023-02-28T11:19:39.497Z,64.20
2023-02-28T11:20:39.485Z,65.70
2023-02-28T11:21:39.487Z,62.85
2023-02-28T11:22:39.491Z,64.90
2023-02-28T11:23:39.487Z,64.70
2023-02-28T11:24:39.452Z,63.46
2023-02-28T11:25:39.467Z,61.57
2023-02-28T11:26:39.434Z,61.48
2023-02-28T11:27:39.473Z,62.96
2023-02-28T11:28:39.442Z,65.35
2023-02-28T11:29:39.497Z,65.73
2023-02-28T11:30:39.421Z,63.06
2023-02-28T11:31:39.466Z,63.11
2023-02-28T11:32:39.570Z,64.70
2023-02-28T11:33:39.423Z,65.67
2023-02-28T11:34:39.393Z,65.60
2023-02-28T11:35:39.427Z,64.06
2023-02-28T11:36:39.380Z,63.89
2023-02-28T11:37:39.378Z,65.73
2023-02-28T11:38:39.375Z,64.87
2023-02-28T11:39:39.363Z,63.86
2023-02-28T11:40:39.372Z,63.57
2023-02-28T11:41:41.302Z,61.88
2023-02-28T11:42:39.371Z,63.93
2023-02-28T11:43:39.352Z,62.71
2023-02-28T11:44:39.345Z,65.31
2023-02-28T11:45:39.348Z,65.19
2023-02-28T11:46:39.364Z,64.90
2023-02-28T11:47:39.372Z,62.34
2023-02-28T11:48:39.311Z,63.17
2023-02-28T11:49:46.318Z,61.36
2023-02-28T11:50:39.317Z,62.01
2023-02-28T11:51:39.291Z,65.74
2023-02-28T11:52:39.290Z,65.97
2023-02-28T11:53:39.303Z,63.15
2023-02-28T11:54:39.284Z,62.34
2023-02-28T11:55:39.277Z,64.78
2023-02-28T11:56:39.280Z,65.36
2023-02-28T11:57:39.284Z,61.99
2023-02-28T11:58:39.278Z,65.90
2023-02-28T11:59:39.249Z,65.24
2023-02-28T12:00:39.243Z,61.78
2023-02-28T12:01:39.266Z,63.08
2023-02-28T12:02:39.254Z,63.94
2023-02-28T12:03:39.234Z,64.76
2023-02-28T12:04:39.268Z,62.95
2023-02-28T12:05:39.238Z,63.69
2023-02-28T12:06:39.225Z,63.82
2023-02-28T12:07:39.236Z,65.07
2023-02-28T12:08:39.211Z,62.06
2023-02-28T12:09:39.212Z,63.54
2023-02-28T12:10:39.235Z,64.17
2023-02-28T12:11:39.221Z,64.80
2023-02-28T12:12:39.208Z,62.49
2023-02-28T12:13:39.184Z,62.77
2023-02-28T12:14:39.196Z,65.02
2023-02-28T12:15:39.196Z,64.18
2023-02-28T12:16:39.225Z,66.35
2023-02-28T12:17:39.169Z,64.25
2023-02-28T12:18:39.179Z,59.35
2023-02-28T12:19:39.167Z,62.69
2023-02-28T12:20:39.146Z,64.14
2023-02-28T12:21:39.166Z,62.51
2023-02-28T12:22:39.177Z,63.43
2023-02-28T12:23:39.129Z,64.64
2023-02-28T12:24:39.144Z,63.73
2023-02-28T12:25:39.115Z,62.55
2023-02-28T12:26:39.118Z,62.94
2023-02-28T12:27:39.155Z,63.35
2023-02-28T12:28:39.125Z,64.48
2023-02-28T12:29:39.085Z,63.24
2023-02-28T12:30:39.091Z,64.48
2023-02-28T12:31:39.156Z,64.81
2023-02-28T12:32:39.161Z,64.00
2023-02-28T12:33:39.095Z,62.54
2023-02-28T12:34:39.071Z,63.85
2023-02-28T12:35:39.093Z,62.94
2023-02-28T12:36:39.058Z,63.93
2023-02-28T12:37:39.046Z,65.99
2023-02-28T12:38:39.084Z,65.61
2023-02-28T12:39:49.780Z,64.37
2023-02-28T12:40:40.063Z,62.46
2023-02-28T12:41:39.033Z,65.59
2023-02-28T12:42:39.026Z,62.92
2023-02-28T12:43:39.060Z,65.48
2023-02-28T12:44:39.006Z,63.03
2023-02-28T12:45:39.107Z,62.47
2023-02-28T12:46:39.118Z,64.35
2023-02-28T12:47:39.008Z,64.24
2023-02-28T12:48:39.029Z,63.22
2023-02-28T12:49:39.003Z,63.61
2023-02-28T12:50:38.982Z,63.36
2023-02-28T12:51:38.977Z,64.15
2023-02-28T12:52:38.978Z,63.14
2023-02-28T12:53:38.982Z,65.19